Jacinto, Nebraska
Current Conditions -  °F | °C
As of 2:35 AM on Sunday 23 Nov 2014 (Local Time) from KIBM Reporting Station
Clear Clear  
Wind Chill: 24°   Ceiling: Unl
Heat Index: 34°   Visibility: 10mi
Dew Point: 28°   Wind: 16mph
Humidity: 77%   Direction: 350°N
Pressure: 29.64"   Gusts: 21mph
Location:  41.202°N, 103.47°W
Report Text: KIBM 230935Z AUTO 35014G18KT 10SM CLR 01/M02 A2964 RMK AO2 T00131024
Loading
Personal Weather Stations






























Interactive Weather Map New forecast layout! Learn more

10-Day Weather Forecast

Advertisements
Track Severe Weather on mobile